sensor_id;sensor_type;location;lat;lon;timestamp;P1;durP1;ratioP1;P2;durP2;ratioP2
41323;SDS011;27073;51.128;4.220;2023-04-09T00:00:22;28.42;;;25.52;;
41323;SDS011;27073;51.128;4.220;2023-04-09T00:02:48;28.48;;;25.08;;
41323;SDS011;27073;51.128;4.220;2023-04-09T00:05:14;27.35;;;24.50;;
41323;SDS011;27073;51.128;4.220;2023-04-09T00:07:40;27.40;;;24.50;;
41323;SDS011;27073;51.128;4.220;2023-04-09T00:10:06;27.83;;;24.77;;
41323;SDS011;27073;51.128;4.220;2023-04-09T00:12:32;26.98;;;24.10;;
41323;SDS011;27073;51.128;4.220;2023-04-09T00:14:57;27.55;;;24.67;;
41323;SDS011;27073;51.128;4.220;2023-04-09T00:17:23;25.67;;;23.02;;
41323;SDS011;27073;51.128;4.220;2023-04-09T00:19:49;26.30;;;23.65;;
41323;SDS011;27073;51.128;4.220;2023-04-09T00:22:15;26.45;;;23.60;;
41323;SDS011;27073;51.128;4.220;2023-04-09T00:24:40;25.60;;;22.83;;
41323;SDS011;27073;51.128;4.220;2023-04-09T00:27:06;25.13;;;22.58;;
41323;SDS011;27073;51.128;4.220;2023-04-09T00:29:32;24.95;;;22.38;;
41323;SDS011;27073;51.128;4.220;2023-04-09T00:31:57;23.23;;;20.83;;
41323;SDS011;27073;51.128;4.220;2023-04-09T00:34:23;26.58;;;22.77;;
41323;SDS011;27073;51.128;4.220;2023-04-09T00:36:49;25.08;;;22.33;;
41323;SDS011;27073;51.128;4.220;2023-04-09T00:39:14;24.48;;;21.75;;
41323;SDS011;27073;51.128;4.220;2023-04-09T00:41:40;24.08;;;21.58;;
41323;SDS011;27073;51.128;4.220;2023-04-09T00:44:06;23.05;;;20.15;;
41323;SDS011;27073;51.128;4.220;2023-04-09T00:46:31;24.48;;;21.92;;
41323;SDS011;27073;51.128;4.220;2023-04-09T00:48:57;24.48;;;21.80;;
41323;SDS011;27073;51.128;4.220;2023-04-09T00:51:23;24.13;;;21.63;;
41323;SDS011;27073;51.128;4.220;2023-04-09T00:53:49;24.70;;;22.00;;
41323;SDS011;27073;51.128;4.220;2023-04-09T00:56:15;25.10;;;22.40;;
41323;SDS011;27073;51.128;4.220;2023-04-09T00:58:43;24.10;;;21.63;;
41323;SDS011;27073;51.128;4.220;2023-04-09T01:01:08;24.35;;;21.75;;
41323;SDS011;27073;51.128;4.220;2023-04-09T01:03:34;26.60;;;20.88;;
41323;SDS011;27073;51.128;4.220;2023-04-09T01:08:54;24.67;;;22.15;;
41323;SDS011;27073;51.128;4.220;2023-04-09T01:11:37;25.75;;;22.23;;
41323;SDS011;27073;51.128;4.220;2023-04-09T01:16:39;23.98;;;21.52;;
41323;SDS011;27073;51.128;4.220;2023-04-09T01:19:09;26.08;;;23.25;;
41323;SDS011;27073;51.128;4.220;2023-04-09T01:21:55;23.73;;;21.33;;
41323;SDS011;27073;51.128;4.220;2023-04-09T01:24:31;26.35;;;22.45;;
41323;SDS011;27073;51.128;4.220;2023-04-09T01:27:07;26.30;;;21.60;;
41323;SDS011;27073;51.128;4.220;2023-04-09T01:29:46;23.98;;;21.35;;
41323;SDS011;27073;51.128;4.220;2023-04-09T01:32:15;24.77;;;21.58;;
41323;SDS011;27073;51.128;4.220;2023-04-09T01:34:45;24.42;;;21.83;;
41323;SDS011;27073;51.128;4.220;2023-04-09T01:37:11;26.35;;;22.45;;
41323;SDS011;27073;51.128;4.220;2023-04-09T01:39:40;25.35;;;22.65;;
41323;SDS011;27073;51.128;4.220;2023-04-09T01:42:06;26.63;;;23.08;;
41323;SDS011;27073;51.128;4.220;2023-04-09T01:44:35;26.92;;;24.10;;
41323;SDS011;27073;51.128;4.220;2023-04-09T01:47:04;26.38;;;23.52;;
41323;SDS011;27073;51.128;4.220;2023-04-09T01:49:30;26.80;;;23.77;;
41323;SDS011;27073;51.128;4.220;2023-04-09T01:51:56;26.05;;;23.30;;
41323;SDS011;27073;51.128;4.220;2023-04-09T01:54:22;27.95;;;24.90;;
41323;SDS011;27073;51.128;4.220;2023-04-09T01:56:48;25.60;;;22.88;;
41323;SDS011;27073;51.128;4.220;2023-04-09T01:59:14;27.95;;;24.75;;
41323;SDS011;27073;51.128;4.220;2023-04-09T02:04:10;27.88;;;24.85;;
41323;SDS011;27073;51.128;4.220;2023-04-09T02:06:52;28.88;;;24.40;;
41323;SDS011;27073;51.128;4.220;2023-04-09T02:09:26;28.20;;;25.17;;
41323;SDS011;27073;51.128;4.220;2023-04-09T02:11:54;31.13;;;24.37;;
41323;SDS011;27073;51.128;4.220;2023-04-09T02:14:23;28.50;;;23.60;;
41323;SDS011;27073;51.128;4.220;2023-04-09T02:16:51;28.33;;;25.30;;
41323;SDS011;27073;51.128;4.220;2023-04-09T02:19:17;27.02;;;23.90;;
41323;SDS011;27073;51.128;4.220;2023-04-09T02:21:43;28.95;;;24.02;;
41323;SDS011;27073;51.128;4.220;2023-04-09T02:24:09;30.60;;;25.48;;
41323;SDS011;27073;51.128;4.220;2023-04-09T02:26:34;29.88;;;26.25;;
41323;SDS011;27073;51.128;4.220;2023-04-09T02:29:02;31.38;;;26.73;;
41323;SDS011;27073;51.128;4.220;2023-04-09T02:31:28;28.10;;;25.10;;
41323;SDS011;27073;51.128;4.220;2023-04-09T02:33:54;30.25;;;26.27;;
41323;SDS011;27073;51.128;4.220;2023-04-09T02:36:19;27.23;;;23.90;;
41323;SDS011;27073;51.128;4.220;2023-04-09T02:38:45;29.70;;;26.35;;
41323;SDS011;27073;51.128;4.220;2023-04-09T02:41:11;33.33;;;26.15;;
41323;SDS011;27073;51.128;4.220;2023-04-09T02:43:37;28.60;;;25.48;;
41323;SDS011;27073;51.128;4.220;2023-04-09T02:46:03;28.85;;;25.80;;
41323;SDS011;27073;51.128;4.220;2023-04-09T02:48:29;28.60;;;25.17;;
41323;SDS011;27073;51.128;4.220;2023-04-09T02:50:55;32.15;;;26.77;;
41323;SDS011;27073;51.128;4.220;2023-04-09T02:53:21;29.05;;;25.67;;
41323;SDS011;27073;51.128;4.220;2023-04-09T02:55:47;30.08;;;25.85;;
41323;SDS011;27073;51.128;4.220;2023-04-09T02:58:13;28.95;;;25.85;;
41323;SDS011;27073;51.128;4.220;2023-04-09T03:00:38;31.98;;;27.95;;
41323;SDS011;27073;51.128;4.220;2023-04-09T03:03:04;34.33;;;28.10;;
41323;SDS011;27073;51.128;4.220;2023-04-09T03:05:30;30.88;;;26.77;;
41323;SDS011;27073;51.128;4.220;2023-04-09T03:07:56;31.65;;;27.00;;
41323;SDS011;27073;51.128;4.220;2023-04-09T03:10:21;32.88;;;28.02;;
41323;SDS011;27073;51.128;4.220;2023-04-09T03:12:47;29.25;;;26.00;;
41323;SDS011;27073;51.128;4.220;2023-04-09T03:15:13;28.55;;;25.48;;
41323;SDS011;27073;51.128;4.220;2023-04-09T03:17:39;29.48;;;24.80;;
41323;SDS011;27073;51.128;4.220;2023-04-09T03:20:05;26.08;;;23.27;;
41323;SDS011;27073;51.128;4.220;2023-04-09T03:22:36;29.10;;;25.80;;
41323;SDS011;27073;51.128;4.220;2023-04-09T03:25:04;30.88;;;26.38;;
41323;SDS011;27073;51.128;4.220;2023-04-09T03:27:32;29.60;;;26.23;;
41323;SDS011;27073;51.128;4.220;2023-04-09T03:29:59;31.48;;;26.95;;
41323;SDS011;27073;51.128;4.220;2023-04-09T03:32:33;28.10;;;25.05;;
41323;SDS011;27073;51.128;4.220;2023-04-09T03:35:00;32.70;;;26.38;;
41323;SDS011;27073;51.128;4.220;2023-04-09T03:37:26;31.88;;;26.73;;
41323;SDS011;27073;51.128;4.220;2023-04-09T03:39:51;35.55;;;29.63;;
41323;SDS011;27073;51.128;4.220;2023-04-09T03:42:18;34.78;;;29.08;;
41323;SDS011;27073;51.128;4.220;2023-04-09T03:44:47;34.10;;;29.20;;
41323;SDS011;27073;51.128;4.220;2023-04-09T03:47:21;32.78;;;27.83;;
41323;SDS011;27073;51.128;4.220;2023-04-09T03:49:46;39.63;;;30.40;;
41323;SDS011;27073;51.128;4.220;2023-04-09T03:52:23;35.53;;;29.73;;
41323;SDS011;27073;51.128;4.220;2023-04-09T03:55:02;33.53;;;29.33;;
41323;SDS011;27073;51.128;4.220;2023-04-09T03:57:29;34.78;;;29.45;;
41323;SDS011;27073;51.128;4.220;2023-04-09T03:59:55;34.85;;;30.48;;
41323;SDS011;27073;51.128;4.220;2023-04-09T04:02:22;37.03;;;30.50;;
41323;SDS011;27073;51.128;4.220;2023-04-09T04:04:58;35.10;;;29.50;;
41323;SDS011;27073;51.128;4.220;2023-04-09T04:07:29;33.38;;;29.10;;
41323;SDS011;27073;51.128;4.220;2023-04-09T04:10:00;35.33;;;31.08;;
41323;SDS011;27073;51.128;4.220;2023-04-09T04:12:29;38.75;;;32.67;;
41323;SDS011;27073;51.128;4.220;2023-04-09T04:15:22;34.15;;;30.15;;
41323;SDS011;27073;51.128;4.220;2023-04-09T04:20:33;35.63;;;28.52;;
41323;SDS011;27073;51.128;4.220;2023-04-09T04:23:05;33.83;;;29.17;;
41323;SDS011;27073;51.128;4.220;2023-04-09T04:25:33;39.45;;;32.45;;
41323;SDS011;27073;51.128;4.220;2023-04-09T04:28:00;38.67;;;33.63;;
41323;SDS011;27073;51.128;4.220;2023-04-09T04:30:34;36.40;;;31.80;;
41323;SDS011;27073;51.128;4.220;2023-04-09T04:33:04;41.25;;;32.83;;
41323;SDS011;27073;51.128;4.220;2023-04-09T04:35:37;37.22;;;33.05;;
41323;SDS011;27073;51.128;4.220;2023-04-09T04:38:05;39.15;;;33.78;;
41323;SDS011;27073;51.128;4.220;2023-04-09T04:40:34;41.75;;;34.35;;
41323;SDS011;27073;51.128;4.220;2023-04-09T04:43:01;40.25;;;35.55;;
41323;SDS011;27073;51.128;4.220;2023-04-09T04:45:27;43.75;;;36.60;;
41323;SDS011;27073;51.128;4.220;2023-04-09T04:47:58;42.67;;;34.92;;
41323;SDS011;27073;51.128;4.220;2023-04-09T04:50:24;44.55;;;36.67;;
41323;SDS011;27073;51.128;4.220;2023-04-09T04:53:03;41.00;;;35.88;;
41323;SDS011;27073;51.128;4.220;2023-04-09T04:55:34;41.47;;;36.00;;
41323;SDS011;27073;51.128;4.220;2023-04-09T04:58:01;43.00;;;36.22;;
41323;SDS011;27073;51.128;4.220;2023-04-09T05:00:31;43.33;;;37.30;;
41323;SDS011;27073;51.128;4.220;2023-04-09T05:03:00;43.42;;;36.72;;
41323;SDS011;27073;51.128;4.220;2023-04-09T05:05:40;46.13;;;37.20;;
41323;SDS011;27073;51.128;4.220;2023-04-09T05:08:06;43.20;;;36.72;;
41323;SDS011;27073;51.128;4.220;2023-04-09T05:10:32;49.42;;;40.03;;
41323;SDS011;27073;51.128;4.220;2023-04-09T05:12:58;44.75;;;38.33;;
41323;SDS011;27073;51.128;4.220;2023-04-09T05:15:30;46.17;;;38.20;;
41323;SDS011;27073;51.128;4.220;2023-04-09T05:17:56;47.97;;;38.38;;
41323;SDS011;27073;51.128;4.220;2023-04-09T05:20:22;47.65;;;37.95;;
41323;SDS011;27073;51.128;4.220;2023-04-09T05:22:59;45.33;;;38.45;;
41323;SDS011;27073;51.128;4.220;2023-04-09T05:25:30;45.20;;;38.60;;
41323;SDS011;27073;51.128;4.220;2023-04-09T05:27:57;42.92;;;36.97;;
41323;SDS011;27073;51.128;4.220;2023-04-09T05:30:24;48.13;;;38.90;;
41323;SDS011;27073;51.128;4.220;2023-04-09T05:32:50;43.28;;;36.60;;
41323;SDS011;27073;51.128;4.220;2023-04-09T05:35:15;46.05;;;38.10;;
41323;SDS011;27073;51.128;4.220;2023-04-09T05:37:42;45.60;;;36.90;;
41323;SDS011;27073;51.128;4.220;2023-04-09T05:40:09;44.67;;;37.25;;
41323;SDS011;27073;51.128;4.220;2023-04-09T05:42:35;49.45;;;39.67;;
41323;SDS011;27073;51.128;4.220;2023-04-09T05:45:11;47.70;;;36.97;;
41323;SDS011;27073;51.128;4.220;2023-04-09T05:47:44;45.78;;;37.13;;
41323;SDS011;27073;51.128;4.220;2023-04-09T05:50:15;46.22;;;38.20;;
41323;SDS011;27073;51.128;4.220;2023-04-09T05:52:41;46.55;;;38.30;;
41323;SDS011;27073;51.128;4.220;2023-04-09T05:55:09;45.08;;;37.40;;
41323;SDS011;27073;51.128;4.220;2023-04-09T05:57:41;45.67;;;37.30;;
41323;SDS011;27073;51.128;4.220;2023-04-09T06:00:10;48.60;;;38.25;;
41323;SDS011;27073;51.128;4.220;2023-04-09T06:02:42;42.80;;;38.08;;
41323;SDS011;27073;51.128;4.220;2023-04-09T06:05:09;47.88;;;38.88;;
41323;SDS011;27073;51.128;4.220;2023-04-09T06:07:35;43.67;;;37.50;;
41323;SDS011;27073;51.128;4.220;2023-04-09T06:10:01;48.08;;;39.47;;
41323;SDS011;27073;51.128;4.220;2023-04-09T06:12:27;48.22;;;39.22;;
41323;SDS011;27073;51.128;4.220;2023-04-09T06:14:53;48.35;;;39.00;;
41323;SDS011;27073;51.128;4.220;2023-04-09T06:17:18;45.72;;;39.00;;
41323;SDS011;27073;51.128;4.220;2023-04-09T06:19:44;48.58;;;39.30;;
41323;SDS011;27073;51.128;4.220;2023-04-09T06:22:10;48.50;;;39.92;;
41323;SDS011;27073;51.128;4.220;2023-04-09T06:24:36;47.30;;;39.53;;
41323;SDS011;27073;51.128;4.220;2023-04-09T06:27:01;49.88;;;41.08;;
41323;SDS011;27073;51.128;4.220;2023-04-09T06:29:27;45.92;;;38.80;;
41323;SDS011;27073;51.128;4.220;2023-04-09T06:31:53;50.92;;;39.88;;
41323;SDS011;27073;51.128;4.220;2023-04-09T06:34:19;50.58;;;40.97;;
41323;SDS011;27073;51.128;4.220;2023-04-09T06:36:45;50.55;;;42.08;;
41323;SDS011;27073;51.128;4.220;2023-04-09T06:39:11;49.22;;;41.00;;
41323;SDS011;27073;51.128;4.220;2023-04-09T06:41:36;51.67;;;42.15;;
41323;SDS011;27073;51.128;4.220;2023-04-09T06:44:11;54.58;;;44.45;;
41323;SDS011;27073;51.128;4.220;2023-04-09T06:46:36;53.35;;;42.72;;
41323;SDS011;27073;51.128;4.220;2023-04-09T06:49:02;56.05;;;44.83;;
41323;SDS011;27073;51.128;4.220;2023-04-09T06:51:28;57.33;;;46.53;;
41323;SDS011;27073;51.128;4.220;2023-04-09T06:53:59;58.38;;;45.28;;
41323;SDS011;27073;51.128;4.220;2023-04-09T06:56:25;56.55;;;45.63;;
41323;SDS011;27073;51.128;4.220;2023-04-09T06:58:51;55.50;;;45.58;;
41323;SDS011;27073;51.128;4.220;2023-04-09T07:01:16;55.42;;;45.10;;
41323;SDS011;27073;51.128;4.220;2023-04-09T07:03:42;55.95;;;45.67;;
41323;SDS011;27073;51.128;4.220;2023-04-09T07:06:08;56.53;;;45.53;;
41323;SDS011;27073;51.128;4.220;2023-04-09T07:08:33;54.75;;;45.47;;
41323;SDS011;27073;51.128;4.220;2023-04-09T07:10:59;56.90;;;46.50;;
41323;SDS011;27073;51.128;4.220;2023-04-09T07:13:25;57.05;;;47.92;;
41323;SDS011;27073;51.128;4.220;2023-04-09T07:15:51;56.10;;;46.15;;
41323;SDS011;27073;51.128;4.220;2023-04-09T07:18:16;58.90;;;47.20;;
41323;SDS011;27073;51.128;4.220;2023-04-09T07:20:42;53.58;;;44.22;;
41323;SDS011;27073;51.128;4.220;2023-04-09T07:23:08;53.65;;;45.08;;
41323;SDS011;27073;51.128;4.220;2023-04-09T07:25:33;56.45;;;45.25;;
41323;SDS011;27073;51.128;4.220;2023-04-09T07:27:59;55.45;;;45.28;;
41323;SDS011;27073;51.128;4.220;2023-04-09T07:30:25;57.22;;;46.47;;
41323;SDS011;27073;51.128;4.220;2023-04-09T07:32:51;53.70;;;45.05;;
41323;SDS011;27073;51.128;4.220;2023-04-09T07:35:17;56.65;;;46.80;;
41323;SDS011;27073;51.128;4.220;2023-04-09T07:37:43;56.55;;;44.50;;
41323;SDS011;27073;51.128;4.220;2023-04-09T07:40:08;54.70;;;45.03;;
41323;SDS011;27073;51.128;4.220;2023-04-09T07:42:38;58.28;;;46.35;;
41323;SDS011;27073;51.128;4.220;2023-04-09T07:45:06;57.00;;;46.42;;
41323;SDS011;27073;51.128;4.220;2023-04-09T07:47:32;57.13;;;44.83;;
41323;SDS011;27073;51.128;4.220;2023-04-09T07:49:58;53.35;;;44.40;;
41323;SDS011;27073;51.128;4.220;2023-04-09T07:52:24;53.92;;;44.42;;
41323;SDS011;27073;51.128;4.220;2023-04-09T07:54:49;55.80;;;44.83;;
41323;SDS011;27073;51.128;4.220;2023-04-09T07:57:15;55.80;;;45.50;;
41323;SDS011;27073;51.128;4.220;2023-04-09T07:59:41;57.70;;;44.72;;
41323;SDS011;27073;51.128;4.220;2023-04-09T08:02:08;54.28;;;44.50;;
41323;SDS011;27073;51.128;4.220;2023-04-09T08:04:33;53.10;;;42.92;;
41323;SDS011;27073;51.128;4.220;2023-04-09T08:06:59;52.15;;;44.35;;
41323;SDS011;27073;51.128;4.220;2023-04-09T08:09:25;51.42;;;44.63;;
41323;SDS011;27073;51.128;4.220;2023-04-09T08:11:51;54.42;;;43.22;;
41323;SDS011;27073;51.128;4.220;2023-04-09T08:14:17;51.45;;;43.15;;
41323;SDS011;27073;51.128;4.220;2023-04-09T08:16:44;51.60;;;42.58;;
41323;SDS011;27073;51.128;4.220;2023-04-09T08:19:11;52.90;;;42.90;;
41323;SDS011;27073;51.128;4.220;2023-04-09T08:21:37;50.63;;;42.88;;
41323;SDS011;27073;51.128;4.220;2023-04-09T08:24:04;50.58;;;41.63;;
41323;SDS011;27073;51.128;4.220;2023-04-09T08:26:31;53.03;;;43.42;;
41323;SDS011;27073;51.128;4.220;2023-04-09T08:28:57;54.17;;;43.70;;
41323;SDS011;27073;51.128;4.220;2023-04-09T08:31:22;55.47;;;45.38;;
41323;SDS011;27073;51.128;4.220;2023-04-09T08:33:49;51.50;;;42.88;;
41323;SDS011;27073;51.128;4.220;2023-04-09T08:36:15;53.42;;;44.00;;
41323;SDS011;27073;51.128;4.220;2023-04-09T08:38:40;56.65;;;43.83;;
41323;SDS011;27073;51.128;4.220;2023-04-09T08:41:06;49.50;;;41.97;;
41323;SDS011;27073;51.128;4.220;2023-04-09T08:43:32;52.53;;;41.38;;
41323;SDS011;27073;51.128;4.220;2023-04-09T08:46:00;56.97;;;45.65;;
41323;SDS011;27073;51.128;4.220;2023-04-09T08:48:27;50.33;;;42.28;;
41323;SDS011;27073;51.128;4.220;2023-04-09T08:50:54;52.85;;;43.50;;
41323;SDS011;27073;51.128;4.220;2023-04-09T08:53:20;51.85;;;43.50;;
41323;SDS011;27073;51.128;4.220;2023-04-09T08:55:47;51.97;;;42.75;;
41323;SDS011;27073;51.128;4.220;2023-04-09T08:58:13;49.70;;;42.15;;
41323;SDS011;27073;51.128;4.220;2023-04-09T09:00:39;54.58;;;43.05;;
41323;SDS011;27073;51.128;4.220;2023-04-09T09:03:09;50.65;;;41.75;;
41323;SDS011;27073;51.128;4.220;2023-04-09T09:05:43;53.00;;;42.70;;
41323;SDS011;27073;51.128;4.220;2023-04-09T09:08:12;47.53;;;39.28;;
41323;SDS011;27073;51.128;4.220;2023-04-09T09:10:51;49.28;;;39.70;;
41323;SDS011;27073;51.128;4.220;2023-04-09T09:13:23;48.63;;;39.65;;
41323;SDS011;27073;51.128;4.220;2023-04-09T09:15:51;55.40;;;42.05;;
41323;SDS011;27073;51.128;4.220;2023-04-09T09:18:39;42.60;;;36.70;;
41323;SDS011;27073;51.128;4.220;2023-04-09T09:21:11;45.78;;;36.83;;
41323;SDS011;27073;51.128;4.220;2023-04-09T09:23:38;44.58;;;35.78;;
41323;SDS011;27073;51.128;4.220;2023-04-09T09:29:02;42.17;;;35.35;;
41323;SDS011;27073;51.128;4.220;2023-04-09T09:31:29;41.97;;;34.28;;
41323;SDS011;27073;51.128;4.220;2023-04-09T09:33:55;39.38;;;33.65;;
41323;SDS011;27073;51.128;4.220;2023-04-09T09:36:31;42.03;;;32.95;;
41323;SDS011;27073;51.128;4.220;2023-04-09T09:38:58;42.53;;;34.60;;
41323;SDS011;27073;51.128;4.220;2023-04-09T09:41:34;41.58;;;32.90;;
41323;SDS011;27073;51.128;4.220;2023-04-09T09:44:00;34.83;;;29.50;;
41323;SDS011;27073;51.128;4.220;2023-04-09T09:46:30;36.95;;;30.42;;
41323;SDS011;27073;51.128;4.220;2023-04-09T09:48:59;35.60;;;29.92;;
41323;SDS011;27073;51.128;4.220;2023-04-09T09:51:25;37.50;;;30.13;;
41323;SDS011;27073;51.128;4.220;2023-04-09T09:53:53;37.72;;;30.55;;
41323;SDS011;27073;51.128;4.220;2023-04-09T09:59:14;37.83;;;30.17;;
41323;SDS011;27073;51.128;4.220;2023-04-09T10:01:46;33.45;;;28.25;;
41323;SDS011;27073;51.128;4.220;2023-04-09T10:04:15;33.63;;;28.75;;
41323;SDS011;27073;51.128;4.220;2023-04-09T10:06:44;36.95;;;29.85;;
41323;SDS011;27073;51.128;4.220;2023-04-09T10:09:11;35.17;;;28.35;;
41323;SDS011;27073;51.128;4.220;2023-04-09T10:11:37;33.90;;;27.15;;
41323;SDS011;27073;51.128;4.220;2023-04-09T10:14:08;31.05;;;26.42;;
41323;SDS011;27073;51.128;4.220;2023-04-09T10:16:34;29.73;;;24.88;;
41323;SDS011;27073;51.128;4.220;2023-04-09T10:19:00;28.45;;;22.80;;
41323;SDS011;27073;51.128;4.220;2023-04-09T10:24:11;24.80;;;21.83;;
41323;SDS011;27073;51.128;4.220;2023-04-09T10:26:41;28.98;;;23.27;;
41323;SDS011;27073;51.128;4.220;2023-04-09T10:29:09;31.00;;;25.67;;
41323;SDS011;27073;51.128;4.220;2023-04-09T10:31:46;26.08;;;22.90;;
41323;SDS011;27073;51.128;4.220;2023-04-09T10:34:14;27.90;;;23.23;;
41323;SDS011;27073;51.128;4.220;2023-04-09T10:36:42;28.23;;;23.95;;
41323;SDS011;27073;51.128;4.220;2023-04-09T10:39:12;22.92;;;19.45;;
41323;SDS011;27073;51.128;4.220;2023-04-09T10:41:37;21.50;;;18.70;;
41323;SDS011;27073;51.128;4.220;2023-04-09T10:44:05;26.42;;;19.70;;
41323;SDS011;27073;51.128;4.220;2023-04-09T10:46:44;24.33;;;20.63;;
41323;SDS011;27073;51.128;4.220;2023-04-09T10:49:16;27.92;;;21.55;;
41323;SDS011;27073;51.128;4.220;2023-04-09T10:52:28;23.95;;;21.05;;
41323;SDS011;27073;51.128;4.220;2023-04-09T10:59:32;23.88;;;19.33;;
41323;SDS011;27073;51.128;4.220;2023-04-09T11:01:58;23.48;;;19.80;;
41323;SDS011;27073;51.128;4.220;2023-04-09T11:04:25;22.25;;;19.60;;
41323;SDS011;27073;51.128;4.220;2023-04-09T11:07:04;23.55;;;18.98;;
41323;SDS011;27073;51.128;4.220;2023-04-09T11:09:34;23.15;;;20.40;;
41323;SDS011;27073;51.128;4.220;2023-04-09T11:12:00;26.55;;;21.27;;
41323;SDS011;27073;51.128;4.220;2023-04-09T11:14:27;26.02;;;21.52;;
41323;SDS011;27073;51.128;4.220;2023-04-09T11:16:53;23.75;;;21.20;;
41323;SDS011;27073;51.128;4.220;2023-04-09T11:19:19;23.30;;;20.60;;
41323;SDS011;27073;51.128;4.220;2023-04-09T11:21:46;22.15;;;19.65;;
41323;SDS011;27073;51.128;4.220;2023-04-09T11:24:12;25.13;;;22.02;;
41323;SDS011;27073;51.128;4.220;2023-04-09T11:26:38;29.38;;;23.38;;
41323;SDS011;27073;51.128;4.220;2023-04-09T11:29:07;27.40;;;22.38;;
41323;SDS011;27073;51.128;4.220;2023-04-09T11:31:33;26.52;;;23.40;;
41323;SDS011;27073;51.128;4.220;2023-04-09T11:34:00;25.42;;;21.00;;
41323;SDS011;27073;51.128;4.220;2023-04-09T11:36:26;24.30;;;21.70;;
41323;SDS011;27073;51.128;4.220;2023-04-09T11:38:52;20.35;;;17.42;;
41323;SDS011;27073;51.128;4.220;2023-04-09T11:41:35;19.02;;;17.08;;
41323;SDS011;27073;51.128;4.220;2023-04-09T11:44:04;23.40;;;19.17;;
41323;SDS011;27073;51.128;4.220;2023-04-09T11:46:31;22.98;;;19.15;;
41323;SDS011;27073;51.128;4.220;2023-04-09T11:49:02;26.88;;;22.02;;
41323;SDS011;27073;51.128;4.220;2023-04-09T11:51:28;23.77;;;21.25;;
41323;SDS011;27073;51.128;4.220;2023-04-09T11:54:03;25.38;;;21.33;;
41323;SDS011;27073;51.128;4.220;2023-04-09T11:56:31;25.90;;;20.80;;
41323;SDS011;27073;51.128;4.220;2023-04-09T11:59:00;25.75;;;20.77;;
41323;SDS011;27073;51.128;4.220;2023-04-09T12:01:29;21.73;;;19.42;;
41323;SDS011;27073;51.128;4.220;2023-04-09T12:03:58;21.42;;;19.08;;
41323;SDS011;27073;51.128;4.220;2023-04-09T12:06:25;23.40;;;20.73;;
41323;SDS011;27073;51.128;4.220;2023-04-09T12:08:52;25.55;;;21.45;;
41323;SDS011;27073;51.128;4.220;2023-04-09T12:11:18;23.27;;;20.05;;
41323;SDS011;27073;51.128;4.220;2023-04-09T12:13:45;22.95;;;20.45;;
41323;SDS011;27073;51.128;4.220;2023-04-09T12:16:11;24.80;;;21.75;;
41323;SDS011;27073;51.128;4.220;2023-04-09T12:18:37;25.65;;;22.80;;
41323;SDS011;27073;51.128;4.220;2023-04-09T12:21:04;23.25;;;20.48;;
41323;SDS011;27073;51.128;4.220;2023-04-09T12:23:30;23.67;;;20.50;;
41323;SDS011;27073;51.128;4.220;2023-04-09T12:25:56;22.90;;;19.45;;
41323;SDS011;27073;51.128;4.220;2023-04-09T12:28:25;23.35;;;20.63;;
41323;SDS011;27073;51.128;4.220;2023-04-09T12:30:51;24.63;;;21.40;;
41323;SDS011;27073;51.128;4.220;2023-04-09T12:33:18;24.23;;;20.92;;
41323;SDS011;27073;51.128;4.220;2023-04-09T12:35:46;25.35;;;22.65;;
41323;SDS011;27073;51.128;4.220;2023-04-09T12:38:12;24.10;;;21.23;;
41323;SDS011;27073;51.128;4.220;2023-04-09T12:40:37;25.98;;;22.08;;
41323;SDS011;27073;51.128;4.220;2023-04-09T12:43:03;24.00;;;21.35;;
41323;SDS011;27073;51.128;4.220;2023-04-09T12:45:29;22.40;;;20.05;;
41323;SDS011;27073;51.128;4.220;2023-04-09T12:47:56;24.67;;;20.15;;
41323;SDS011;27073;51.128;4.220;2023-04-09T12:50:22;21.40;;;18.85;;
41323;SDS011;27073;51.128;4.220;2023-04-09T12:52:48;20.83;;;17.33;;
41323;SDS011;27073;51.128;4.220;2023-04-09T12:55:14;19.90;;;17.80;;
41323;SDS011;27073;51.128;4.220;2023-04-09T12:57:43;19.63;;;17.08;;
41323;SDS011;27073;51.128;4.220;2023-04-09T13:00:11;19.60;;;16.42;;
41323;SDS011;27073;51.128;4.220;2023-04-09T13:02:37;19.45;;;17.38;;
41323;SDS011;27073;51.128;4.220;2023-04-09T13:05:03;18.77;;;16.63;;
41323;SDS011;27073;51.128;4.220;2023-04-09T13:07:29;19.08;;;17.08;;
41323;SDS011;27073;51.128;4.220;2023-04-09T13:09:55;18.00;;;15.93;;
41323;SDS011;27073;51.128;4.220;2023-04-09T13:12:23;19.42;;;17.25;;
41323;SDS011;27073;51.128;4.220;2023-04-09T13:14:50;17.55;;;15.73;;
41323;SDS011;27073;51.128;4.220;2023-04-09T13:17:17;18.70;;;16.70;;
41323;SDS011;27073;51.128;4.220;2023-04-09T13:19:46;17.67;;;14.48;;
41323;SDS011;27073;51.128;4.220;2023-04-09T13:22:12;16.83;;;14.77;;
41323;SDS011;27073;51.128;4.220;2023-04-09T13:24:38;17.10;;;13.18;;
41323;SDS011;27073;51.128;4.220;2023-04-09T13:27:05;14.30;;;12.65;;
41323;SDS011;27073;51.128;4.220;2023-04-09T13:29:33;14.38;;;12.52;;
41323;SDS011;27073;51.128;4.220;2023-04-09T13:31:59;15.65;;;13.98;;
41323;SDS011;27073;51.128;4.220;2023-04-09T13:34:30;17.27;;;15.40;;
41323;SDS011;27073;51.128;4.220;2023-04-09T13:36:56;16.02;;;13.98;;
41323;SDS011;27073;51.128;4.220;2023-04-09T13:39:22;15.07;;;13.48;;
41323;SDS011;27073;51.128;4.220;2023-04-09T13:41:47;14.80;;;13.23;;
41323;SDS011;27073;51.128;4.220;2023-04-09T13:44:13;13.65;;;12.25;;
41323;SDS011;27073;51.128;4.220;2023-04-09T13:46:39;13.80;;;11.48;;
41323;SDS011;27073;51.128;4.220;2023-04-09T13:49:05;15.68;;;13.15;;
41323;SDS011;27073;51.128;4.220;2023-04-09T13:51:31;13.95;;;11.65;;
41323;SDS011;27073;51.128;4.220;2023-04-09T13:53:57;14.95;;;12.30;;
41323;SDS011;27073;51.128;4.220;2023-04-09T13:56:23;13.52;;;11.10;;
41323;SDS011;27073;51.128;4.220;2023-04-09T13:58:51;13.52;;;11.20;;
41323;SDS011;27073;51.128;4.220;2023-04-09T14:01:17;14.68;;;12.02;;
41323;SDS011;27073;51.128;4.220;2023-04-09T14:03:43;14.15;;;11.90;;
41323;SDS011;27073;51.128;4.220;2023-04-09T14:06:09;15.70;;;11.68;;
41323;SDS011;27073;51.128;4.220;2023-04-09T14:08:35;13.65;;;11.63;;
41323;SDS011;27073;51.128;4.220;2023-04-09T14:11:01;14.35;;;12.43;;
41323;SDS011;27073;51.128;4.220;2023-04-09T14:13:27;12.40;;;11.20;;
41323;SDS011;27073;51.128;4.220;2023-04-09T14:15:53;15.15;;;12.90;;
41323;SDS011;27073;51.128;4.220;2023-04-09T14:18:19;16.33;;;12.77;;
41323;SDS011;27073;51.128;4.220;2023-04-09T14:20:45;21.00;;;15.70;;
41323;SDS011;27073;51.128;4.220;2023-04-09T14:23:11;23.35;;;17.42;;
41323;SDS011;27073;51.128;4.220;2023-04-09T14:25:36;18.13;;;13.30;;
41323;SDS011;27073;51.128;4.220;2023-04-09T14:28:02;19.95;;;14.55;;
41323;SDS011;27073;51.128;4.220;2023-04-09T14:30:28;26.02;;;17.00;;
41323;SDS011;27073;51.128;4.220;2023-04-09T14:32:54;25.17;;;14.52;;
41323;SDS011;27073;51.128;4.220;2023-04-09T14:35:20;12.43;;;9.25;;
41323;SDS011;27073;51.128;4.220;2023-04-09T14:37:46;16.35;;;11.13;;
41323;SDS011;27073;51.128;4.220;2023-04-09T14:40:11;12.50;;;9.90;;
41323;SDS011;27073;51.128;4.220;2023-04-09T14:42:39;12.20;;;10.10;;
41323;SDS011;27073;51.128;4.220;2023-04-09T14:45:05;13.70;;;9.90;;
41323;SDS011;27073;51.128;4.220;2023-04-09T14:47:31;11.88;;;10.32;;